This is the latest recevied weather packets stored in our database for station/object KF4PPJ. If no packets are shown the sender has not sent any weather packets the latest 10 day(s).
| Time | Temp. | Humidity | Pressure | Rain* | Wind** | Luminosity | Snow |
|---|---|---|---|---|---|---|---|
| 1777936766 | 23.89° C | 51% | 1012.4 hPa | 0 mm | - | 506 W/m² | - |
| 1777936461 | 24.44° C | 51% | 1012.4 hPa | 0 mm | - | 547 W/m² | - |
| 1777936157 | 24.44° C | 51% | 1012.7 hPa | 0 mm | - | 503 W/m² | - |
| 1777935855 | 24.44° C | 50% | 1012.6 hPa | 0 mm | - | 540 W/m² | - |
| 1777935554 | 23.89° C | 51% | 1012.7 hPa | 0 mm | - | 552 W/m² | - |
| 1777935250 | 25° C | 49% | 1012.8 hPa | 0 mm | - | 550 W/m² | - |
| 1777934948 | 24.44° C | 50% | 1013 hPa | 0 mm | - | 555 W/m² | - |
| 1777934644 | 24.44° C | 51% | 1012.7 hPa | 0 mm | - | 528 W/m² | - |
| 1777934341 | 24.44° C | 50% | 1013 hPa | 0 mm | - | 584 W/m² | - |
| 1777934037 | 24.44° C | 50% | 1013 hPa | 0 mm | - | 601 W/m² | - |
| 1777933733 | 25° C | 47% | 1013 hPa | 0 mm | - | 567 W/m² | - |
| 1777933430 | 25° C | 48% | 1013 hPa | 0 mm | - | 509 W/m² | - |
| 1777933129 | 25° C | 47% | 1013.1 hPa | 0 mm | - | 508 W/m² | - |
| 1777932825 | 25° C | 47% | 1013.1 hPa | 0 mm | - | 582 W/m² | - |
| 1777932522 | 24.44° C | 47% | 1013.3 hPa | 0 mm | - | 635 W/m² | - |
| 1777932219 | 23.89° C | 48% | 1013.2 hPa | 0 mm | - | 609 W/m² | - |
| 1777931916 | 24.44° C | 46% | 1013.3 hPa | 0 mm | - | 600 W/m² | - |
| 1777931612 | 23.89° C | 47% | 1013.3 hPa | 0 mm | - | 645 W/m² | - |
| 1777931308 | 23.89° C | 47% | 1013.4 hPa | 0 mm | - | 673 W/m² | - |
| 1777931006 | 23.89° C | 47% | 1013.3 hPa | 0 mm | - | 396 W/m² | - |
| 1777930702 | 23.33° C | 51% | 1013.4 hPa | 0 mm | - | 657 W/m² | - |
| 1777930398 | 23.33° C | 50% | 1013.3 hPa | 0 mm | - | 672 W/m² | - |
| 1777930096 | 23.89° C | 50% | 1013.6 hPa | 0 mm | - | 678 W/m² | - |
| 1777929792 | 23.89° C | 50% | 1013.3 hPa | 0 mm | - | 672 W/m² | - |
| 1777929490 | 23.33° C | 51% | 1013.5 hPa | 0 mm | - | 652 W/m² | - |
* Rain latest hour (hover to see other rain measurements)
** Current wind speed in m/s (hover to see current wind gust speed)